Terminal Aerodrome Forecast
Issued by NWS

Home | Current Version | Previous Version | Text Only | Print | Product List | Glossary Off
Versions: 1 2 3 4 5 6 7 8 9 10 11 12 13

000
FTUS45 KGGW 241514 AAA
TAFGDV
TAF AMD
KGDV 241514Z 2415/2512 17024G33KT P6SM SCT110
     FM241900 21016G25KT P6SM BKN100
     FM242100 26017G27KT P6SM VCSH BKN090
     FM250300 29007KT P6SM BKN090
     FM250900 24011KT P6SM SCT120=

USA.gov is the U.S. government's official web portal to all federal, state and local government web resources and services.